Time;durP1;ratioP1;P1;durP2;ratioP2;P2;SDS_P1;SDS_P2;PMS_P1;PMS_P2;Temp;Humidity;BMP_temperature;BMP_pressure;BME280_temperature;BME280_humidity;BME280_pressure;Samples;Min_cycle;Max_cycle;Signal;HPM_P1;HPM_P2
2021/01/17 00:01:04;;;;;;;14.73;5.20;;;;;;;-13.39;55.91;99033.66;5030929;28;20044;-69
2021/01/17 00:03:30;;;;;;;14.68;5.28;;;;;;;-13.32;55.83;99048.25;5030821;28;20157;-69
2021/01/17 00:05:55;;;;;;;17.85;5.78;;;;;;;-13.29;55.92;99066.28;5031449;28;20123;-66
2021/01/17 00:08:22;;;;;;;11.77;4.93;;;;;;;-13.28;55.65;99053.44;5031180;28;20041;-68
2021/01/17 00:10:47;;;;;;;13.45;4.53;;;;;;;-13.26;55.70;99050.88;5030611;28;20095;-69
2021/01/17 00:13:14;;;;;;;11.93;5.00;;;;;;;-13.23;55.58;99063.75;5030072;28;20448;-56
2021/01/17 00:15:39;;;;;;;12.63;5.10;;;;;;;-13.23;55.59;99053.47;5032038;28;20029;-69
2021/01/17 00:18:06;;;;;;;12.27;5.38;;;;;;;-13.23;55.16;99061.19;5029662;28;20125;-66
2021/01/17 00:20:32;;;;;;;14.50;5.13;;;;;;;-13.25;55.52;99056.88;5030965;28;20033;-64
2021/01/17 00:23:02;;;;;;;13.32;4.80;;;;;;;-13.31;54.80;99057.72;5031008;28;20033;-65
2021/01/17 00:25:28;;;;;;;13.02;5.43;;;;;;;-13.36;55.60;99070.59;5031812;28;20025;-66
2021/01/17 00:27:55;;;;;;;17.20;5.45;;;;;;;-13.43;55.79;99062.00;5031710;28;20038;-66
2021/01/17 00:30:24;;;;;;;13.88;5.63;;;;;;;-13.43;55.48;99069.72;5030642;28;20063;-67
2021/01/17 00:32:51;;;;;;;13.15;5.10;;;;;;;-13.42;54.74;99066.25;5031197;28;20029;-68
2021/01/17 00:35:17;;;;;;;10.48;4.45;;;;;;;-13.49;55.57;99069.72;5031211;28;20025;-65
2021/01/17 00:37:43;;;;;;;13.77;5.53;;;;;;;-13.42;55.73;99078.25;5029935;28;20083;-68
2021/01/17 00:40:10;;;;;;;9.90;4.53;;;;;;;-13.41;55.72;99078.28;5029947;28;20053;-67
2021/01/17 00:42:36;;;;;;;10.52;4.53;;;;;;;-13.38;55.96;99086.88;5012965;28;20132;-68
2021/01/17 00:45:02;;;;;;;14.77;5.55;;;;;;;-13.51;55.79;99055.09;5009901;28;20153;-66
2021/01/17 00:47:29;;;;;;;12.02;4.88;;;;;;;-13.38;55.61;99080.03;5019350;28;20144;-66
2021/01/17 00:49:54;;;;;;;14.02;4.78;;;;;;;-13.32;55.59;99092.03;5029879;28;20512;-67
2021/01/17 00:52:21;;;;;;;11.77;5.00;;;;;;;-13.30;55.83;99096.38;5030428;28;20037;-67
2021/01/17 00:54:48;;;;;;;11.52;5.03;;;;;;;-13.36;55.70;99100.63;5030802;28;20036;-66
2021/01/17 00:57:16;;;;;;;15.20;5.40;;;;;;;-13.44;55.33;99101.50;5030363;28;20120;-66
2021/01/17 00:59:42;;;;;;;14.93;5.65;;;;;;;-13.44;55.63;99109.22;5030281;28;20033;-65
2021/01/17 01:02:08;;;;;;;12.40;5.32;;;;;;;-13.52;55.41;99092.84;5030394;28;20469;-66
2021/01/17 01:04:34;;;;;;;14.38;4.90;;;;;;;-13.67;55.76;99070.47;5030611;28;20029;-66
2021/01/17 01:07:00;;;;;;;14.85;4.85;;;;;;;-13.49;55.62;99104.88;5029676;28;20457;-66
2021/01/17 01:09:27;;;;;;;13.88;5.18;;;;;;;-14.12;55.55;99005.91;5029756;28;20563;-67
2021/01/17 01:11:52;;;;;;;16.30;5.88;;;;;;;-13.54;55.24;99114.31;5030200;28;20127;-67
2021/01/17 01:14:19;;;;;;;15.80;5.85;;;;;;;-13.53;55.43;99111.72;5030180;28;20428;-67
2021/01/17 01:16:52;;;;;;;15.95;5.97;;;;;;;-13.49;55.33;99120.34;5030351;28;20133;-68
2021/01/17 01:19:17;;;;;;;13.25;5.32;;;;;;;-13.59;55.29;99115.16;5029807;28;20044;-67
2021/01/17 01:21:43;;;;;;;13.07;5.15;;;;;;;-13.77;55.13;99100.44;5030066;28;20030;-67
2021/01/17 01:24:09;;;;;;;12.00;4.22;;;;;;;-13.65;54.48;99125.38;5029685;28;20033;-68
2021/01/17 01:26:42;;;;;;;15.35;5.43;;;;;;;-13.79;54.58;99143.31;5028213;28;20037;-65
2021/01/17 01:29:08;;;;;;;14.70;5.40;;;;;;;-14.02;54.77;99127.72;5029640;28;20563;-67
2021/01/17 01:31:35;;;;;;;14.55;4.40;;;;;;;-14.13;54.40;99127.66;5029945;28;20055;-69
2021/01/17 01:34:01;;;;;;;18.30;5.47;;;;;;;-14.11;55.05;99143.94;5028356;28;20492;-67
2021/01/17 01:36:30;;;;;;;11.82;4.85;;;;;;;-14.31;54.68;99102.66;5029577;28;20065;-66
2021/01/17 01:38:56;;;;;;;11.98;5.03;;;;;;;-14.21;55.09;99135.28;5029628;28;20111;-69
2021/01/17 01:41:27;;;;;;;12.88;4.63;;;;;;;-14.15;54.84;99149.91;5029475;28;20084;-65
2021/01/17 01:43:53;;;;;;;10.73;4.38;;;;;;;-14.13;54.96;99138.78;5029846;28;20034;-67
2021/01/17 01:46:22;;;;;;;12.55;4.55;;;;;;;-14.13;54.14;99143.06;5030022;28;20033;-60
2021/01/17 01:48:48;;;;;;;13.90;4.93;;;;;;;-14.10;54.56;99142.22;5029645;28;20038;-67
2021/01/17 01:51:15;;;;;;;9.93;4.32;;;;;;;-14.16;54.64;99148.19;5032757;28;20041;-68
2021/01/17 01:53:42;;;;;;;11.43;4.35;;;;;;;-14.14;54.91;99161.94;5034131;28;20037;-67
2021/01/17 01:56:08;;;;;;;14.35;4.68;;;;;;;-14.11;54.58;99172.25;5033536;28;20034;-67
2021/01/17 01:58:36;;;;;;;11.32;4.75;;;;;;;-14.18;54.46;99166.19;5033368;28;20045;-68
2021/01/17 02:01:03;;;;;;;11.23;4.15;;;;;;;-14.18;54.64;99170.47;5033896;28;20042;-67
2021/01/17 02:03:28;;;;;;;14.35;5.03;;;;;;;-14.26;54.41;99160.13;5033640;28;20042;-67
2021/01/17 02:05:54;;;;;;;10.15;4.18;;;;;;;-14.24;54.38;99180.69;5033334;28;20044;-67
2021/01/17 02:08:31;;;;;;;11.38;4.78;;;;;;;-14.24;54.08;99161.00;5034118;28;20048;-54
2021/01/17 02:11:07;;;;;;;13.77;5.28;;;;;;;-14.20;54.20;99185.03;5033706;28;20041;-68
2021/01/17 02:13:39;;;;;;;11.45;4.40;;;;;;;-14.33;54.62;99146.34;5033016;28;20041;-64
2021/01/17 02:16:07;;;;;;;11.23;4.93;;;;;;;-14.20;54.31;99174.75;5032892;28;20057;-67
2021/01/17 02:18:39;;;;;;;14.15;5.50;;;;;;;-14.29;53.82;99176.38;5033603;28;20094;-66
2021/01/17 02:21:07;;;;;;;15.18;5.40;;;;;;;-14.37;54.22;99172.00;5032072;28;20124;-67
2021/01/17 02:23:41;;;;;;;10.20;3.80;;;;;;;-14.47;54.38;99171.91;5033240;28;20037;-66
2021/01/17 02:26:07;;;;;;;12.50;4.78;;;;;;;-14.74;54.70;99150.25;5036406;28;20087;-66
2021/01/17 02:28:33;;;;;;;13.63;4.47;;;;;;;-14.61;54.89;99174.34;5051098;28;20042;-67
2021/01/17 02:31:01;;;;;;;13.68;4.38;;;;;;;-14.59;54.95;99180.38;5033818;28;20041;-68
2021/01/17 02:33:30;;;;;;;11.02;4.57;;;;;;;-14.58;55.12;99176.09;5032898;28;20072;-67
2021/01/17 02:36:25;;;;;;;10.95;4.38;;;;;;;-14.84;54.90;99127.03;5032868;28;20037;-68
2021/01/17 02:39:16;;;;;;;11.23;4.33;;;;;;;-14.59;54.53;99180.38;5033723;28;20049;-54
2021/01/17 02:41:58;;;;;;;13.43;4.78;;;;;;;-14.76;54.01;99184.47;5032725;28;20152;-65
2021/01/17 02:44:27;;;;;;;15.55;4.82;;;;;;;-14.92;54.60;99192.03;5032313;28;20050;-66
2021/01/17 02:46:53;;;;;;;9.23;4.43;;;;;;;-15.05;54.52;99196.16;5033096;28;20026;-63
2021/01/17 02:49:18;;;;;;;11.13;4.78;;;;;;;-15.25;55.03;99185.59;5033377;28;20044;-69
2021/01/17 02:51:49;;;;;;;13.98;5.07;;;;;;;-16.18;54.92;99056.06;5032401;28;20114;-67
2021/01/17 02:54:27;;;;;;;12.90;5.03;;;;;;;-15.72;54.48;99179.81;5032057;28;20041;-68
2021/01/17 02:57:02;;;;;;;11.55;3.83;;;;;;;-15.65;54.78;99201.31;5032628;28;20099;-64
2021/01/17 02:59:40;;;;;;;15.32;4.97;;;;;;;-15.71;54.98;99203.78;5032736;28;20033;-67
2021/01/17 03:02:07;;;;;;;10.95;4.47;;;;;;;-15.76;55.58;99206.28;5031446;28;20532;-68
2021/01/17 03:04:39;;;;;;;10.25;3.70;;;;;;;-15.78;55.62;99196.84;5031879;28;20166;-67
2021/01/17 03:07:08;;;;;;;12.55;4.93;;;;;;;-16.65;55.51;99052.78;5032823;28;20043;-69
2021/01/17 03:09:33;;;;;;;13.13;4.72;;;;;;;-15.83;55.54;99203.59;5032573;28;20025;-68
2021/01/17 03:12:03;;;;;;;11.18;4.60;;;;;;;-15.77;55.25;99209.69;5023862;28;20041;-64
2021/01/17 03:14:35;;;;;;;9.77;4.40;;;;;;;-15.99;55.27;99177.75;5027201;28;20049;-68
2021/01/17 03:17:03;;;;;;;13.55;4.70;;;;;;;-15.79;55.37;99226.75;5030971;28;20105;-68
2021/01/17 03:19:28;;;;;;;10.55;4.30;;;;;;;-15.85;55.38;99221.53;5030975;28;20374;-68
2021/01/17 03:21:54;;;;;;;14.10;4.68;;;;;;;-15.83;55.75;99235.25;5031215;28;20033;-65
2021/01/17 03:24:19;;;;;;;11.00;4.25;;;;;;;-16.00;55.58;99200.78;5031832;28;20033;-68
2021/01/17 03:26:45;;;;;;;13.30;4.70;;;;;;;-16.00;55.47;99235.00;5031311;28;20033;-67
2021/01/17 03:29:10;;;;;;;13.05;4.53;;;;;;;-16.52;55.24;99163.19;5031360;28;20029;-67
2021/01/17 03:31:36;;;;;;;12.75;4.50;;;;;;;-16.00;55.42;99242.69;5031311;28;20035;-65
2021/01/17 03:34:01;;;;;;;9.27;3.58;;;;;;;-15.97;55.57;99255.56;5031326;28;20030;-68
2021/01/17 03:36:27;;;;;;;10.27;4.20;;;;;;;-16.03;55.51;99256.31;5031314;28;20139;-67
2021/01/17 03:38:52;;;;;;;10.10;3.92;;;;;;;-16.01;55.44;99266.63;5030961;28;20524;-66
2021/01/17 03:41:18;;;;;;;16.13;4.40;;;;;;;-16.77;55.37;99129.44;5031603;28;20379;-67
2021/01/17 03:43:43;;;;;;;12.70;4.80;;;;;;;-16.14;55.57;99239.91;5030981;28;20429;-67
2021/01/17 03:46:09;;;;;;;10.52;4.32;;;;;;;-16.07;55.40;99257.13;5031451;28;20120;-67
2021/01/17 03:48:34;;;;;;;15.55;4.05;;;;;;;-16.18;55.30;99279.13;5031588;28;20564;-69
2021/01/17 03:50:59;;;;;;;13.15;4.38;;;;;;;-16.41;55.84;99251.34;5030603;28;20614;-66
2021/01/17 03:53:25;;;;;;;11.65;4.88;;;;;;;-16.35;55.76;99269.44;5030145;28;20124;-53
2021/01/17 03:55:50;;;;;;;10.18;4.07;;;;;;;-16.44;55.88;99284.63;5030493;28;20062;-69
2021/01/17 03:58:16;;;;;;;13.05;4.63;;;;;;;-16.55;55.98;99286.97;5031196;28;20033;-67
2021/01/17 04:00:41;;;;;;;12.90;4.75;;;;;;;-16.66;55.95;99279.06;5030961;28;20033;-65
2021/01/17 04:03:07;;;;;;;9.18;3.65;;;;;;;-16.78;56.57;99289.91;5030586;28;20134;-66
2021/01/17 04:05:32;;;;;;;11.95;3.95;;;;;;;-16.82;56.46;99300.09;5031656;28;20041;-67
2021/01/17 04:07:58;;;;;;;9.98;3.75;;;;;;;-16.93;56.76;99287.91;5031007;28;20382;-65
2021/01/17 04:10:23;;;;;;;12.43;4.07;;;;;;;-16.95;56.44;99296.41;5030831;28;20112;-67
2021/01/17 04:12:49;;;;;;;15.02;4.13;;;;;;;-17.10;57.00;99294.41;5030233;28;20069;-66
2021/01/17 04:15:14;;;;;;;14.15;4.85;;;;;;;-17.19;56.88;99290.78;5031512;28;20576;-67
2021/01/17 04:17:40;;;;;;;11.32;4.57;;;;;;;-17.27;57.21;99297.44;5030969;28;20034;-68
2021/01/17 04:20:05;;;;;;;14.95;4.40;;;;;;;-17.32;57.05;99330.59;5030768;28;20033;-69
2021/01/17 04:22:36;;;;;;;12.63;4.20;;;;;;;-17.34;57.16;99313.50;5031065;28;20076;-68
2021/01/17 04:25:04;;;;;;;10.88;4.00;;;;;;;-17.36;57.49;99317.69;5031633;28;20029;-67
2021/01/17 04:27:29;;;;;;;13.13;4.28;;;;;;;-17.43;57.52;99321.81;5031918;28;20064;-66
2021/01/17 04:29:55;;;;;;;10.18;4.20;;;;;;;-17.36;57.39;99327.91;5047932;28;20040;-68
2021/01/17 04:32:20;;;;;;;17.45;4.40;;;;;;;-17.37;57.63;99344.97;5038595;28;20074;-68
2021/01/17 04:34:46;;;;;;;8.05;3.28;;;;;;;-17.68;57.31;99279.41;5031309;28;20048;-66
2021/01/17 04:37:11;;;;;;;9.93;4.07;;;;;;;-17.53;57.43;99307.94;5045734;28;20068;-67
2021/01/17 04:39:37;;;;;;;9.98;3.28;;;;;;;-17.41;57.73;99322.72;5030818;28;20123;-65
2021/01/17 04:42:06;;;;;;;9.82;3.75;;;;;;;-17.42;57.57;99330.34;5030612;28;20104;-66
2021/01/17 04:44:34;;;;;;;8.50;3.20;;;;;;;-17.40;57.41;99352.59;5029767;28;20049;-68
2021/01/17 04:47:03;;;;;;;9.48;3.65;;;;;;;-17.67;57.46;99291.38;5030370;28;20436;-67
2021/01/17 04:49:32;;;;;;;11.73;3.55;;;;;;;-17.33;57.48;99354.47;5029083;28;20395;-65
2021/01/17 04:51:59;;;;;;;12.15;4.15;;;;;;;-17.29;57.18;99359.66;5030651;28;20031;-68
2021/01/17 04:54:26;;;;;;;11.40;4.20;;;;;;;-17.80;57.29;99252.75;5031078;28;20033;-67
2021/01/17 04:56:59;;;;;;;11.10;3.90;;;;;;;-17.27;56.87;99343.50;5030451;28;20417;-69
2021/01/17 04:59:30;;;;;;;10.20;3.63;;;;;;;-17.28;56.95;99359.69;5029404;28;20507;-66
2021/01/17 05:02:23;;;;;;;9.73;2.85;;;;;;;-17.26;56.61;99345.25;5025578;28;20045;-63
2021/01/17 05:05:14;;;;;;;10.80;3.78;;;;;;;-17.67;56.88;99281.16;5028298;28;20029;-65
2021/01/17 05:07:49;;;;;;;14.23;3.38;;;;;;;-17.35;56.73;99353.56;5028174;28;20043;-67
2021/01/17 05:10:46;;;;;;;10.75;3.55;;;;;;;-17.96;56.85;99248.06;5028099;28;20497;-65
2021/01/17 05:13:17;;;;;;;12.98;4.13;;;;;;;-17.29;57.27;99360.53;5028918;28;20421;-67
2021/01/17 05:15:43;;;;;;;11.90;3.70;;;;;;;-17.29;56.77;99364.75;5029813;28;20057;-66
2021/01/17 05:18:10;;;;;;;9.98;3.65;;;;;;;-17.28;56.70;99392.97;5029572;28;20041;-66
2021/01/17 05:20:36;;;;;;;18.02;3.95;;;;;;;-17.34;57.01;99373.19;5029635;28;20351;-67
2021/01/17 05:23:08;;;;;;;11.93;4.30;;;;;;;-17.34;56.74;99383.44;5029598;28;20064;-68
2021/01/17 05:25:34;;;;;;;14.90;4.22;;;;;;;-17.35;56.76;99391.09;5029634;28;20147;-66
2021/01/17 05:28:00;;;;;;;10.70;3.83;;;;;;;-17.38;56.83;99383.31;5029760;28;20135;-60
2021/01/17 05:30:26;;;;;;;11.65;4.22;;;;;;;-17.41;56.66;99416.50;5030080;28;20544;-67
2021/01/17 05:32:53;;;;;;;14.43;4.43;;;;;;;-17.40;56.92;99390.09;5029296;28;20041;-69
2021/01/17 05:35:20;;;;;;;10.07;3.90;;;;;;;-18.31;56.74;99251.50;5030204;28;20060;-71
2021/01/17 05:37:51;;;;;;;10.82;3.67;;;;;;;-17.52;56.78;99388.09;5029949;28;20037;-69
2021/01/17 05:40:17;;;;;;;9.85;4.00;;;;;;;-18.36;56.84;99256.47;5029685;28;20061;-67
2021/01/17 05:42:45;;;;;;;11.82;3.80;;;;;;;-17.56;57.07;99406.75;5029587;28;20398;-67
2021/01/17 05:45:18;;;;;;;12.52;4.10;;;;;;;-17.56;56.91;99411.88;5028436;28;20036;-67
2021/01/17 05:47:57;;;;;;;13.98;3.67;;;;;;;-17.63;56.66;99406.59;5029318;28;20370;-66
2021/01/17 05:50:24;;;;;;;12.27;3.80;;;;;;;-17.60;56.92;99416.03;5029445;28;20034;-66
2021/01/17 05:52:57;;;;;;;10.05;3.83;;;;;;;-17.55;56.89;99419.59;5029840;28;20086;-65
2021/01/17 05:55:29;;;;;;;11.05;3.40;;;;;;;-17.57;56.59;99428.94;5029059;28;20048;-66
2021/01/17 05:57:55;;;;;;;12.20;4.78;;;;;;;-17.57;56.90;99446.81;5029431;28;20040;-67
2021/01/17 06:00:33;;;;;;;12.50;4.20;;;;;;;-17.54;56.80;99440.91;5030252;28;20440;-67
2021/01/17 06:03:02;;;;;;;11.07;3.97;;;;;;;-17.61;56.43;99429.63;5029961;28;20029;-67
2021/01/17 06:05:29;;;;;;;10.30;3.97;;;;;;;-17.57;56.63;99436.59;5029714;28;20026;-67
2021/01/17 06:07:54;;;;;;;12.00;3.47;;;;;;;-17.49;56.50;99442.78;5020487;28;20532;-66
2021/01/17 06:10:24;;;;;;;9.95;3.97;;;;;;;-17.44;56.67;99440.34;5010353;28;20030;-67
2021/01/17 06:12:51;;;;;;;12.77;4.53;;;;;;;-17.53;56.04;99438.41;5009655;28;20034;-67
2021/01/17 06:15:17;;;;;;;11.93;4.50;;;;;;;-18.09;55.84;99334.69;5009497;28;20034;-67
2021/01/17 06:17:47;;;;;;;10.80;3.88;;;;;;;-17.35;55.80;99470.44;5009833;28;20034;-63
2021/01/17 06:20:27;;;;;;;12.80;4.00;;;;;;;-17.35;55.23;99458.47;5010578;28;20025;-66
2021/01/17 06:22:58;;;;;;;8.80;3.47;;;;;;;-17.24;55.48;99460.44;5009558;28;20029;-68
2021/01/17 06:25:28;;;;;;;13.18;4.40;;;;;;;-17.11;55.07;99464.19;5009615;28;20072;-66
2021/01/17 06:28:28;;;;;;;11.73;3.67;;;;;;;-16.92;54.98;99462.91;5009812;28;20037;-67
2021/01/17 06:30:54;;;;;;;10.93;3.67;;;;;;;-16.90;54.13;99451.00;5024119;28;20045;-64
2021/01/17 06:33:24;;;;;;;10.30;3.78;;;;;;;-16.69;53.96;99458.31;5015433;28;20037;-68
2021/01/17 06:35:49;;;;;;;11.23;4.30;;;;;;;-16.58;53.50;99467.97;5009791;28;20041;-72
2021/01/17 06:38:20;;;;;;;12.07;4.22;;;;;;;-16.70;53.61;99437.81;5018395;28;20022;-71
2021/01/17 06:40:48;;;;;;;13.07;4.25;;;;;;;-16.45;53.28;99475.09;5021979;28;20096;-72
2021/01/17 06:43:14;;;;;;;13.50;4.13;;;;;;;-16.67;53.18;99423.34;5022739;28;20460;-69
2021/01/17 06:45:44;;;;;;;8.32;3.00;;;;;;;-16.14;53.31;99473.22;5020898;28;20079;-71
2021/01/17 06:48:21;;;;;;;15.02;4.03;;;;;;;-16.02;52.73;99488.84;5013469;28;20556;-72
2021/01/17 06:50:47;;;;;;;11.98;4.00;;;;;;;-15.91;52.47;99477.97;5013219;28;20034;-71
2021/01/17 06:53:23;;;;;;;13.13;4.72;;;;;;;-15.49;52.39;99479.59;5012434;28;20538;-71
2021/01/17 06:55:50;;;;;;;13.02;4.75;;;;;;;-14.72;51.55;99482.66;5012567;28;20029;-73
2021/01/17 06:58:19;;;;;;;11.70;4.03;;;;;;;-13.81;50.47;99469.31;5013010;28;20596;-70
2021/01/17 07:00:46;;;;;;;13.77;4.55;;;;;;;-13.14;49.07;99478.59;5012608;28;20041;-71
2021/01/17 07:03:19;;;;;;;12.65;4.57;;;;;;;-12.74;48.63;99483.25;5012070;28;20062;-72
2021/01/17 07:06:04;;;;;;;12.95;5.07;;;;;;;-11.95;46.73;99454.47;5012103;28;20025;-75
2021/01/17 07:08:38;;;;;;;13.77;5.55;;;;;;;-10.88;46.37;99467.69;5012120;28;20037;-72
2021/01/17 07:11:42;;;;;;;13.98;5.47;;;;;;;-9.20;44.38;99467.25;5012901;28;20034;-71
2021/01/17 07:14:08;;;;;;;13.07;5.00;;;;;;;-8.60;44.43;99452.13;5011314;28;20049;-73
2021/01/17 07:16:35;;;;;;;15.02;5.38;;;;;;;-7.57;43.68;99473.59;5012382;28;20566;-70
2021/01/17 07:19:07;;;;;;;11.73;5.13;;;;;;;-6.35;40.78;99472.69;5012325;28;20030;-73
2021/01/17 07:21:38;;;;;;;10.65;5.28;;;;;;;-5.19;39.89;99469.56;5012738;28;20038;-71
2021/01/17 07:24:06;;;;;;;11.52;5.85;;;;;;;-4.73;38.20;99370.16;5013113;28;20044;-74
2021/01/17 07:26:55;;;;;;;18.63;6.80;;;;;;;-3.15;36.40;99478.28;5012236;28;20104;-74
2021/01/17 07:29:26;;;;;;;20.60;7.93;;;;;;;-2.84;34.81;99374.31;5012080;28;20121;-76
2021/01/17 07:31:55;;;;;;;25.00;9.95;;;;;;;-1.59;34.10;99482.84;5012763;28;20034;-71
2021/01/17 07:34:21;;;;;;;17.10;8.10;;;;;;;-1.43;34.01;99458.66;5011818;28;20116;-70
2021/01/17 07:36:49;;;;;;;21.05;7.45;;;;;;;-1.16;33.28;99480.38;5012335;28;20045;-70
2021/01/17 07:39:20;;;;;;;16.38;6.90;;;;;;;-1.98;31.68;99415.09;5012328;28;20065;-64
2021/01/17 07:41:50;;;;;;;15.55;6.95;;;;;;;-2.80;32.36;99506.94;5011871;28;20046;-71
2021/01/17 07:44:17;;;;;;;13.70;6.65;;;;;;;-4.38;35.04;99517.34;5011310;28;20052;-74
2021/01/17 07:46:43;;;;;;;15.18;6.55;;;;;;;-5.83;36.83;99514.31;5011706;28;20066;-71
2021/01/17 07:49:10;;;;;;;15.60;7.00;;;;;;;-7.23;37.40;99526.94;5012134;28;20139;-66
2021/01/17 07:51:36;;;;;;;14.60;6.68;;;;;;;-8.51;39.23;99530.81;5012043;28;20069;-73
2021/01/17 07:54:22;;;;;;;16.85;6.60;;;;;;;-9.57;39.46;99537.44;5011936;28;20061;-72
2021/01/17 07:56:48;;;;;;;16.27;5.57;;;;;;;-11.03;41.74;99437.53;5011622;28;20042;-69
2021/01/17 07:59:23;;;;;;;16.02;7.22;;;;;;;-11.22;41.55;99560.72;5011208;28;20048;-71
2021/01/17 08:01:48;;;;;;;;;;;;;;;-11.87;44.75;99562.97;5011671;28;20513;-73
2021/01/17 08:04:16;;;;;;;14.52;5.47;;;;;;;-12.67;45.42;99569.28;5012044;28;19917;-71
2021/01/17 08:06:41;;;;;;;16.35;6.20;;;;;;;-13.27;45.92;99566.91;5010728;28;20057;-71
2021/01/17 08:09:11;;;;;;;11.23;5.15;;;;;;;-13.69;46.19;99573.31;5011809;28;20454;-71
2021/01/17 08:11:46;;;;;;;16.63;6.18;;;;;;;-13.98;46.66;99577.19;5011844;28;20030;-73
2021/01/17 08:14:18;;;;;;;15.40;5.13;;;;;;;-14.13;46.62;99582.97;5011613;28;20132;-68
2021/01/17 08:17:04;;;;;;;16.00;5.97;;;;;;;-14.26;47.23;99581.03;5010707;28;20041;-73
2021/01/17 08:19:38;;;;;;;14.27;5.68;;;;;;;-14.39;47.13;99598.84;5011326;28;20552;-73
2021/01/17 08:22:15;;;;;;;12.40;5.35;;;;;;;-14.41;46.66;99585.09;5011095;28;20042;-72
2021/01/17 08:24:41;;;;;;;14.93;5.38;;;;;;;-14.28;47.25;99584.44;5011716;28;20128;-72
2021/01/17 08:27:06;;;;;;;15.07;5.82;;;;;;;-14.70;46.92;99456.13;5010273;28;20112;-71
2021/01/17 08:30:01;;;;;;;20.45;7.20;;;;;;;-13.68;45.26;99557.84;5010833;28;20039;-74
2021/01/17 08:32:41;;;;;;;16.20;5.82;;;;;;;-13.26;44.42;99571.25;5012575;28;20030;-72
2021/01/17 08:35:24;;;;;;;19.65;6.60;;;;;;;-13.15;44.28;99579.94;5020462;28;20440;-72
2021/01/17 08:38:13;;;;;;;15.43;6.05;;;;;;;-13.03;44.25;99598.97;5011617;28;20038;-74
2021/01/17 08:40:47;;;;;;;14.45;5.55;;;;;;;-12.97;44.30;99596.47;5009721;28;20038;-73
2021/01/17 08:43:15;;;;;;;11.13;5.00;;;;;;;-12.97;44.65;99586.16;5011121;28;20042;-73
2021/01/17 08:45:47;;;;;;;18.38;5.53;;;;;;;-13.02;44.44;99587.81;5011049;28;20050;-62
2021/01/17 08:48:15;;;;;;;12.90;5.63;;;;;;;-13.13;43.85;99587.72;5010899;28;20175;-71
2021/01/17 08:50:41;;;;;;;16.08;5.30;;;;;;;-13.35;44.39;99581.41;5011363;28;20069;-68
2021/01/17 08:53:12;;;;;;;14.27;4.80;;;;;;;-13.54;44.75;99591.50;5010873;28;20071;-71
2021/01/17 08:55:38;;;;;;;11.90;4.60;;;;;;;-13.67;45.39;99594.78;5011227;28;20508;-72
2021/01/17 08:58:04;;;;;;;11.85;5.05;;;;;;;-13.82;45.40;99559.41;5010161;28;20069;-70
2021/01/17 09:00:48;;;;;;;12.98;5.00;;;;;;;-13.59;45.13;99581.16;5010012;28;20032;-72
2021/01/17 09:03:42;;;;;;;14.40;5.35;;;;;;;-13.55;45.22;99597.50;5010338;28;20120;-71
2021/01/17 09:06:07;;;;;;;12.02;5.30;;;;;;;-13.50;45.82;99583.00;5010941;28;20037;-71
2021/01/17 09:08:34;;;;;;;13.48;5.88;;;;;;;-13.50;45.63;99595.88;5010284;28;20037;-71
2021/01/17 09:11:01;;;;;;;14.60;5.20;;;;;;;-13.54;45.70;99601.81;5010503;28;20041;-72
2021/01/17 09:13:30;;;;;;;11.55;4.53;;;;;;;-13.61;46.10;99613.75;5010754;28;20038;-71
2021/01/17 09:16:08;;;;;;;16.92;6.05;;;;;;;-13.72;46.02;99599.84;5010411;28;20443;-72
2021/01/17 09:18:35;;;;;;;14.05;4.93;;;;;;;-13.69;46.52;99606.75;5010179;28;20029;-71
2021/01/17 09:21:02;;;;;;;16.52;5.40;;;;;;;-13.66;46.10;99609.38;5010174;28;20033;-70
2021/01/17 09:23:28;;;;;;;12.73;5.55;;;;;;;-13.69;46.19;99622.22;5009342;28;20041;-72
2021/01/17 09:25:59;;;;;;;16.67;6.50;;;;;;;-13.95;46.19;99589.25;5010272;28;20097;-70
2021/01/17 09:28:28;;;;;;;15.80;5.68;;;;;;;-13.71;46.22;99615.34;5010221;28;20133;-70
2021/01/17 09:30:55;;;;;;;22.15;6.22;;;;;;;-13.73;46.08;99611.88;5009501;28;20033;-65
2021/01/17 09:33:22;;;;;;;19.80;6.13;;;;;;;-13.77;46.53;99630.66;5010524;28;20036;-65
2021/01/17 09:35:49;;;;;;;12.88;5.20;;;;;;;-14.08;46.76;99575.31;5010308;28;20465;-62
2021/01/17 09:38:17;;;;;;;14.60;5.55;;;;;;;-13.80;46.71;99609.19;5008375;28;20026;-53
2021/01/17 09:40:48;;;;;;;12.88;5.43;;;;;;;-13.86;46.59;99621.13;5010250;28;20137;-56
2021/01/17 09:43:16;;;;;;;14.18;5.45;;;;;;;-14.77;46.90;99463.75;5010651;28;20042;-67
2021/01/17 09:45:48;;;;;;;14.65;4.97;;;;;;;-13.94;46.75;99603.84;5010200;28;20041;-75
2021/01/17 09:48:18;;;;;;;19.80;5.43;;;;;;;-13.91;47.47;99621.88;5010430;28;20121;-64
2021/01/17 09:50:44;;;;;;;15.68;5.25;;;;;;;-13.92;47.16;99613.28;5010520;28;20072;-64
2021/01/17 09:53:09;;;;;;;15.13;5.57;;;;;;;-13.91;47.58;99634.75;5009962;28;20065;-66
2021/01/17 09:55:39;;;;;;;18.23;5.97;;;;;;;-14.02;47.05;99620.00;5010063;28;20052;-67
2021/01/17 09:58:06;;;;;;;15.15;6.05;;;;;;;-14.06;47.38;99637.97;5009657;28;20489;-64
2021/01/17 10:00:32;;;;;;;21.48;5.60;;;;;;;-14.06;47.67;99631.09;5010380;28;20044;-67
2021/01/17 10:02:58;;;;;;;13.35;5.90;;;;;;;-14.14;47.72;99648.13;5010041;28;20029;-68
2021/01/17 10:05:30;;;;;;;15.23;6.03;;;;;;;-14.15;47.40;99651.53;5009637;28;20060;-71
2021/01/17 10:08:04;;;;;;;13.57;5.78;;;;;;;-14.18;47.63;99636.06;5009391;28;20034;-69
2021/01/17 10:10:31;;;;;;;11.52;4.13;;;;;;;-14.14;48.18;99640.41;5011608;28;20033;-68
2021/01/17 10:12:56;;;;;;;12.90;5.53;;;;;;;-14.22;47.95;99621.41;5023141;28;20149;-66
2021/01/17 10:15:24;;;;;;;16.27;5.80;;;;;;;-14.09;47.93;99638.75;5032193;28;20212;-62
2021/01/17 10:17:50;;;;;;;21.15;6.75;;;;;;;-14.03;48.18;99638.84;5032547;28;20041;-64
2021/01/17 10:20:27;;;;;;;23.15;7.47;;;;;;;-14.66;48.17;99511.84;5033431;28;20592;-67
2021/01/17 10:23:06;;;;;;;15.38;6.00;;;;;;;-13.77;47.90;99638.38;5032695;28;20025;-66
2021/01/17 10:25:33;;;;;;;11.88;5.97;;;;;;;-13.76;48.01;99634.13;5017229;28;20039;-68
2021/01/17 10:28:03;;;;;;;21.70;7.85;;;;;;;-13.71;47.94;99643.66;5031738;28;20040;-67
2021/01/17 10:30:33;;;;;;;19.67;7.30;;;;;;;-14.15;47.67;99600.94;5028840;28;20527;-67
2021/01/17 10:33:09;;;;;;;15.20;5.88;;;;;;;-13.82;48.35;99658.06;5031068;28;20187;-63
2021/01/17 10:35:48;;;;;;;20.85;7.82;;;;;;;-13.91;47.40;99652.78;5032399;28;20041;-67
2021/01/17 10:38:16;;;;;;;17.05;6.65;;;;;;;-13.88;48.23;99674.25;5034333;28;20407;-65
2021/01/17 10:40:43;;;;;;;18.75;6.53;;;;;;;-13.83;48.43;99671.75;5032997;28;20148;-68
2021/01/17 10:43:23;;;;;;;21.55;7.10;;;;;;;-13.82;47.63;99652.06;5017121;28;20389;-61
2021/01/17 10:46:00;;;;;;;13.98;6.22;;;;;;;-13.76;48.61;99654.72;5028709;28;20072;-71
2021/01/17 10:48:26;;;;;;;15.60;6.60;;;;;;;-13.73;48.44;99660.78;5026946;28;20033;-64
2021/01/17 10:51:00;;;;;;;21.00;7.60;;;;;;;-13.76;48.40;99658.13;5027713;28;20044;-65
2021/01/17 10:53:34;;;;;;;20.08;6.60;;;;;;;-13.71;48.41;99671.09;5030920;28;20075;-66
2021/01/17 10:56:00;;;;;;;;;;;;;;;-13.58;48.52;99672.13;5030886;28;20410;-63
2021/01/17 10:58:31;;;;;;;17.33;5.78;;;;;;;-13.59;48.24;99666.13;5031759;28;19917;-66
2021/01/17 11:00:59;;;;;;;16.92;6.00;;;;;;;-13.63;48.36;99664.34;5031499;28;20041;-65
2021/01/17 11:03:44;;;;;;;14.02;5.75;;;;;;;-13.44;48.17;99680.94;5030693;28;20124;-65
2021/01/17 11:06:21;;;;;;;16.13;6.43;;;;;;;-13.29;48.65;99674.22;5014238;28;20034;-66
2021/01/17 11:08:55;;;;;;;15.38;6.50;;;;;;;-13.19;48.22;99681.25;5010997;28;20157;-64
2021/01/17 11:11:23;;;;;;;27.88;7.47;;;;;;;-13.10;48.44;99677.94;5010122;28;20034;-66
2021/01/17 11:14:05;;;;;;;15.38;6.82;;;;;;;-13.23;48.10;99633.09;5029781;28;20051;-64
2021/01/17 11:16:48;;;;;;;19.88;6.68;;;;;;;-12.97;48.05;99671.22;5028071;28;20392;-66
2021/01/17 11:19:16;;;;;;;15.50;6.32;;;;;;;-13.07;48.53;99641.00;5045159;28;20034;-64
2021/01/17 11:21:43;;;;;;;18.83;7.20;;;;;;;-12.96;48.26;99665.22;5029762;28;20029;-66
2021/01/17 11:24:09;;;;;;;23.60;8.40;;;;;;;-12.98;48.58;99666.91;5029883;28;20057;-65
2021/01/17 11:26:36;;;;;;;19.67;7.18;;;;;;;-13.05;48.39;99672.81;5029952;28;20033;-64
2021/01/17 11:29:04;;;;;;;24.20;8.38;;;;;;;-13.08;48.16;99688.25;5023106;28;20041;-64
2021/01/17 11:31:30;;;;;;;19.60;7.28;;;;;;;-13.11;48.54;99668.47;5012641;28;20387;-66